sensor_id;sensor_type;location;lat;lon;timestamp;temperature;humidity
35894;DHT22;21994;48.204;16.516;2023-02-12T00:00:36;6.50;99.90
35894;DHT22;21994;48.204;16.516;2023-02-12T00:03:02;6.60;99.90
35894;DHT22;21994;48.204;16.516;2023-02-12T00:05:28;6.60;99.90
35894;DHT22;21994;48.204;16.516;2023-02-12T00:07:54;6.70;99.90
35894;DHT22;21994;48.204;16.516;2023-02-12T00:10:19;6.70;99.90
35894;DHT22;21994;48.204;16.516;2023-02-12T00:12:45;6.70;99.90
35894;DHT22;21994;48.204;16.516;2023-02-12T00:15:11;6.60;99.90
35894;DHT22;21994;48.204;16.516;2023-02-12T00:17:36;6.60;99.90
35894;DHT22;21994;48.204;16.516;2023-02-12T00:20:02;6.70;99.90
35894;DHT22;21994;48.204;16.516;2023-02-12T00:22:28;6.70;99.90
35894;DHT22;21994;48.204;16.516;2023-02-12T00:24:54;6.70;99.90
35894;DHT22;21994;48.204;16.516;2023-02-12T00:27:21;6.80;99.90
35894;DHT22;21994;48.204;16.516;2023-02-12T00:29:47;6.70;99.90
35894;DHT22;21994;48.204;16.516;2023-02-12T00:32:13;6.70;99.90
35894;DHT22;21994;48.204;16.516;2023-02-12T00:34:39;6.70;99.90
35894;DHT22;21994;48.204;16.516;2023-02-12T00:37:05;6.70;99.90
35894;DHT22;21994;48.204;16.516;2023-02-12T00:39:31;6.80;99.90
35894;DHT22;21994;48.204;16.516;2023-02-12T00:41:57;6.90;99.90
35894;DHT22;21994;48.204;16.516;2023-02-12T00:44:22;6.90;99.90
35894;DHT22;21994;48.204;16.516;2023-02-12T00:46:48;6.90;99.90
35894;DHT22;21994;48.204;16.516;2023-02-12T00:49:14;6.90;99.90
35894;DHT22;21994;48.204;16.516;2023-02-12T00:51:40;6.90;99.90
35894;DHT22;21994;48.204;16.516;2023-02-12T00:54:05;6.90;99.90
35894;DHT22;21994;48.204;16.516;2023-02-12T00:56:31;6.90;99.90
35894;DHT22;21994;48.204;16.516;2023-02-12T00:58:57;6.90;99.90
35894;DHT22;21994;48.204;16.516;2023-02-12T01:01:23;6.90;99.90
35894;DHT22;21994;48.204;16.516;2023-02-12T01:03:48;6.90;99.90
35894;DHT22;21994;48.204;16.516;2023-02-12T01:06:14;6.90;99.90
35894;DHT22;21994;48.204;16.516;2023-02-12T01:08:40;6.90;99.90
35894;DHT22;21994;48.204;16.516;2023-02-12T01:11:06;6.90;99.90
35894;DHT22;21994;48.204;16.516;2023-02-12T01:13:33;6.90;99.90
35894;DHT22;21994;48.204;16.516;2023-02-12T01:16:00;6.90;99.90
35894;DHT22;21994;48.204;16.516;2023-02-12T01:18:32;6.90;99.90
35894;DHT22;21994;48.204;16.516;2023-02-12T01:20:58;6.90;99.90
35894;DHT22;21994;48.204;16.516;2023-02-12T01:23:25;6.90;99.90
35894;DHT22;21994;48.204;16.516;2023-02-12T01:25:51;6.90;99.90
35894;DHT22;21994;48.204;16.516;2023-02-12T01:28:17;6.90;99.90
35894;DHT22;21994;48.204;16.516;2023-02-12T01:30:43;6.90;99.90
35894;DHT22;21994;48.204;16.516;2023-02-12T01:33:08;6.80;99.90
35894;DHT22;21994;48.204;16.516;2023-02-12T01:35:36;6.80;99.90
35894;DHT22;21994;48.204;16.516;2023-02-12T01:38:02;6.90;99.90
35894;DHT22;21994;48.204;16.516;2023-02-12T01:40:28;6.80;99.90
35894;DHT22;21994;48.204;16.516;2023-02-12T01:42:53;6.80;99.90
35894;DHT22;21994;48.204;16.516;2023-02-12T01:45:32;6.80;99.90
35894;DHT22;21994;48.204;16.516;2023-02-12T01:48:08;6.80;99.90
35894;DHT22;21994;48.204;16.516;2023-02-12T01:50:34;6.90;99.90
35894;DHT22;21994;48.204;16.516;2023-02-12T01:53:00;6.80;99.90
35894;DHT22;21994;48.204;16.516;2023-02-12T01:55:25;6.90;99.90
35894;DHT22;21994;48.204;16.516;2023-02-12T01:57:52;6.80;99.90
35894;DHT22;21994;48.204;16.516;2023-02-12T02:00:19;6.80;99.90
35894;DHT22;21994;48.204;16.516;2023-02-12T02:02:56;6.70;99.90
35894;DHT22;21994;48.204;16.516;2023-02-12T02:08:25;6.70;99.90
35894;DHT22;21994;48.204;16.516;2023-02-12T02:10:51;6.70;99.90
35894;DHT22;21994;48.204;16.516;2023-02-12T02:13:17;6.70;99.90
35894;DHT22;21994;48.204;16.516;2023-02-12T02:16:05;6.60;99.90
35894;DHT22;21994;48.204;16.516;2023-02-12T02:18:46;6.60;99.90
35894;DHT22;21994;48.204;16.516;2023-02-12T02:21:26;6.60;99.90
35894;DHT22;21994;48.204;16.516;2023-02-12T02:24:03;6.60;99.90
35894;DHT22;21994;48.204;16.516;2023-02-12T02:27:09;6.50;99.90
35894;DHT22;21994;48.204;16.516;2023-02-12T02:29:42;6.50;99.90
35894;DHT22;21994;48.204;16.516;2023-02-12T02:32:31;6.40;99.90
35894;DHT22;21994;48.204;16.516;2023-02-12T02:37:53;6.50;99.90
35894;DHT22;21994;48.204;16.516;2023-02-12T02:40:26;6.50;99.90
35894;DHT22;21994;48.204;16.516;2023-02-12T02:43:01;6.50;99.90
35894;DHT22;21994;48.204;16.516;2023-02-12T02:45:40;6.50;99.90
35894;DHT22;21994;48.204;16.516;2023-02-12T02:48:18;6.50;99.90
35894;DHT22;21994;48.204;16.516;2023-02-12T02:50:53;6.50;99.90
35894;DHT22;21994;48.204;16.516;2023-02-12T02:53:31;6.40;99.90
35894;DHT22;21994;48.204;16.516;2023-02-12T02:56:02;6.50;99.90
35894;DHT22;21994;48.204;16.516;2023-02-12T02:58:36;6.50;99.90
35894;DHT22;21994;48.204;16.516;2023-02-12T03:01:15;6.60;99.90
35894;DHT22;21994;48.204;16.516;2023-02-12T03:03:51;6.50;99.90
35894;DHT22;21994;48.204;16.516;2023-02-12T03:06:27;6.60;99.90
35894;DHT22;21994;48.204;16.516;2023-02-12T03:09:36;6.60;99.90
35894;DHT22;21994;48.204;16.516;2023-02-12T03:12:15;6.50;99.90
35894;DHT22;21994;48.204;16.516;2023-02-12T03:14:46;6.50;99.90
35894;DHT22;21994;48.204;16.516;2023-02-12T03:17:19;6.50;99.90
35894;DHT22;21994;48.204;16.516;2023-02-12T03:19:54;6.50;99.90
35894;DHT22;21994;48.204;16.516;2023-02-12T03:22:24;6.50;99.90
35894;DHT22;21994;48.204;16.516;2023-02-12T03:27:48;6.50;99.90
35894;DHT22;21994;48.204;16.516;2023-02-12T03:30:19;6.40;99.90
35894;DHT22;21994;48.204;16.516;2023-02-12T03:35:34;6.40;99.90
35894;DHT22;21994;48.204;16.516;2023-02-12T03:38:08;6.40;99.90
35894;DHT22;21994;48.204;16.516;2023-02-12T03:40:46;6.40;99.90
35894;DHT22;21994;48.204;16.516;2023-02-12T03:43:20;6.40;99.90
35894;DHT22;21994;48.204;16.516;2023-02-12T03:45:49;6.30;99.90
35894;DHT22;21994;48.204;16.516;2023-02-12T03:48:21;6.40;99.90
35894;DHT22;21994;48.204;16.516;2023-02-12T03:53:39;6.40;99.90
35894;DHT22;21994;48.204;16.516;2023-02-12T03:56:14;6.40;99.90
35894;DHT22;21994;48.204;16.516;2023-02-12T03:58:43;6.30;99.90
35894;DHT22;21994;48.204;16.516;2023-02-12T04:01:10;6.30;99.90
35894;DHT22;21994;48.204;16.516;2023-02-12T04:03:36;6.30;99.90
35894;DHT22;21994;48.204;16.516;2023-02-12T04:06:02;6.30;99.90
35894;DHT22;21994;48.204;16.516;2023-02-12T04:08:28;6.20;99.90
35894;DHT22;21994;48.204;16.516;2023-02-12T04:11:00;6.10;99.90
35894;DHT22;21994;48.204;16.516;2023-02-12T04:13:54;6.20;99.90
35894;DHT22;21994;48.204;16.516;2023-02-12T04:19:39;6.00;99.90
35894;DHT22;21994;48.204;16.516;2023-02-12T04:27:56;6.00;99.90
35894;DHT22;21994;48.204;16.516;2023-02-12T04:30:34;6.00;99.90
35894;DHT22;21994;48.204;16.516;2023-02-12T04:33:03;6.10;99.90
35894;DHT22;21994;48.204;16.516;2023-02-12T04:38:10;6.10;99.90
35894;DHT22;21994;48.204;16.516;2023-02-12T04:40:41;6.10;99.90
35894;DHT22;21994;48.204;16.516;2023-02-12T04:43:07;6.20;99.90
35894;DHT22;21994;48.204;16.516;2023-02-12T04:45:33;6.30;99.90
35894;DHT22;21994;48.204;16.516;2023-02-12T04:48:00;6.30;99.90
35894;DHT22;21994;48.204;16.516;2023-02-12T04:50:29;6.30;99.90
35894;DHT22;21994;48.204;16.516;2023-02-12T04:53:03;6.30;99.90
35894;DHT22;21994;48.204;16.516;2023-02-12T04:55:29;6.40;99.90
35894;DHT22;21994;48.204;16.516;2023-02-12T04:57:55;6.50;99.90
35894;DHT22;21994;48.204;16.516;2023-02-12T05:00:20;6.50;99.90
35894;DHT22;21994;48.204;16.516;2023-02-12T05:02:46;6.50;99.90
35894;DHT22;21994;48.204;16.516;2023-02-12T05:05:21;6.50;99.90
35894;DHT22;21994;48.204;16.516;2023-02-12T05:07:47;6.50;99.90
35894;DHT22;21994;48.204;16.516;2023-02-12T05:10:13;6.40;99.90
35894;DHT22;21994;48.204;16.516;2023-02-12T05:12:39;6.50;99.90
35894;DHT22;21994;48.204;16.516;2023-02-12T05:15:05;6.40;99.90
35894;DHT22;21994;48.204;16.516;2023-02-12T05:17:31;6.50;99.90
35894;DHT22;21994;48.204;16.516;2023-02-12T05:19:57;6.50;99.90
35894;DHT22;21994;48.204;16.516;2023-02-12T05:22:22;6.50;99.90
35894;DHT22;21994;48.204;16.516;2023-02-12T05:24:48;6.50;99.90
35894;DHT22;21994;48.204;16.516;2023-02-12T05:27:14;6.40;99.90
35894;DHT22;21994;48.204;16.516;2023-02-12T05:29:40;6.50;99.90
35894;DHT22;21994;48.204;16.516;2023-02-12T05:32:06;6.50;99.90
35894;DHT22;21994;48.204;16.516;2023-02-12T05:34:32;6.50;99.90
35894;DHT22;21994;48.204;16.516;2023-02-12T05:36:58;6.50;99.90
35894;DHT22;21994;48.204;16.516;2023-02-12T05:39:24;6.50;99.90
35894;DHT22;21994;48.204;16.516;2023-02-12T05:41:50;6.50;99.90
35894;DHT22;21994;48.204;16.516;2023-02-12T05:44:15;6.50;99.90
35894;DHT22;21994;48.204;16.516;2023-02-12T05:46:41;6.50;99.90
35894;DHT22;21994;48.204;16.516;2023-02-12T05:49:08;6.50;99.90
35894;DHT22;21994;48.204;16.516;2023-02-12T05:51:34;6.50;99.90
35894;DHT22;21994;48.204;16.516;2023-02-12T05:54:00;6.50;99.90
35894;DHT22;21994;48.204;16.516;2023-02-12T05:56:29;6.50;99.90
35894;DHT22;21994;48.204;16.516;2023-02-12T05:58:57;6.50;99.90
35894;DHT22;21994;48.204;16.516;2023-02-12T06:01:25;6.60;99.90
35894;DHT22;21994;48.204;16.516;2023-02-12T06:03:52;6.50;99.90
35894;DHT22;21994;48.204;16.516;2023-02-12T06:06:18;6.40;99.90
35894;DHT22;21994;48.204;16.516;2023-02-12T06:08:46;6.40;99.90
35894;DHT22;21994;48.204;16.516;2023-02-12T06:11:13;6.30;99.90
35894;DHT22;21994;48.204;16.516;2023-02-12T06:13:40;6.30;99.90
35894;DHT22;21994;48.204;16.516;2023-02-12T06:16:05;6.40;99.90
35894;DHT22;21994;48.204;16.516;2023-02-12T06:18:34;6.50;99.90
35894;DHT22;21994;48.204;16.516;2023-02-12T06:21:02;6.40;99.90
35894;DHT22;21994;48.204;16.516;2023-02-12T06:23:28;6.60;99.90
35894;DHT22;21994;48.204;16.516;2023-02-12T06:25:55;6.50;99.90
35894;DHT22;21994;48.204;16.516;2023-02-12T06:28:24;6.60;99.90
35894;DHT22;21994;48.204;16.516;2023-02-12T06:30:49;6.60;99.90
35894;DHT22;21994;48.204;16.516;2023-02-12T06:33:15;6.50;99.90
35894;DHT22;21994;48.204;16.516;2023-02-12T06:35:41;6.50;99.90
35894;DHT22;21994;48.204;16.516;2023-02-12T06:38:07;6.50;99.90
35894;DHT22;21994;48.204;16.516;2023-02-12T06:40:36;6.60;99.90
35894;DHT22;21994;48.204;16.516;2023-02-12T06:43:02;6.50;99.90
35894;DHT22;21994;48.204;16.516;2023-02-12T06:45:27;6.60;99.90
35894;DHT22;21994;48.204;16.516;2023-02-12T06:47:53;6.60;99.90
35894;DHT22;21994;48.204;16.516;2023-02-12T06:50:19;6.60;99.90
35894;DHT22;21994;48.204;16.516;2023-02-12T06:52:44;6.60;99.90
35894;DHT22;21994;48.204;16.516;2023-02-12T06:55:10;6.60;99.90
35894;DHT22;21994;48.204;16.516;2023-02-12T06:57:36;6.60;99.90
35894;DHT22;21994;48.204;16.516;2023-02-12T07:00:02;6.70;99.90
35894;DHT22;21994;48.204;16.516;2023-02-12T07:02:28;6.60;99.90
35894;DHT22;21994;48.204;16.516;2023-02-12T07:04:54;6.70;99.90
35894;DHT22;21994;48.204;16.516;2023-02-12T07:07:19;6.70;99.90
35894;DHT22;21994;48.204;16.516;2023-02-12T07:09:45;6.70;99.90
35894;DHT22;21994;48.204;16.516;2023-02-12T07:12:11;6.60;99.90
35894;DHT22;21994;48.204;16.516;2023-02-12T07:14:37;6.70;99.90
35894;DHT22;21994;48.204;16.516;2023-02-12T07:17:02;6.70;99.90
35894;DHT22;21994;48.204;16.516;2023-02-12T07:19:29;6.80;99.90
35894;DHT22;21994;48.204;16.516;2023-02-12T07:21:55;6.80;99.90
35894;DHT22;21994;48.204;16.516;2023-02-12T07:24:21;6.80;99.90
35894;DHT22;21994;48.204;16.516;2023-02-12T07:26:47;6.80;99.90
35894;DHT22;21994;48.204;16.516;2023-02-12T07:29:13;6.80;99.90
35894;DHT22;21994;48.204;16.516;2023-02-12T07:31:39;6.90;99.90
35894;DHT22;21994;48.204;16.516;2023-02-12T07:34:04;6.90;99.90
35894;DHT22;21994;48.204;16.516;2023-02-12T07:36:31;6.90;99.90
35894;DHT22;21994;48.204;16.516;2023-02-12T07:38:57;6.90;99.90
35894;DHT22;21994;48.204;16.516;2023-02-12T07:41:33;6.90;99.90
35894;DHT22;21994;48.204;16.516;2023-02-12T07:44:08;6.90;99.90
35894;DHT22;21994;48.204;16.516;2023-02-12T07:46:39;7.00;99.90
35894;DHT22;21994;48.204;16.516;2023-02-12T07:49:19;7.00;99.90
35894;DHT22;21994;48.204;16.516;2023-02-12T07:51:46;7.10;99.90
35894;DHT22;21994;48.204;16.516;2023-02-12T07:54:13;7.20;99.90
35894;DHT22;21994;48.204;16.516;2023-02-12T07:56:39;7.10;99.90
35894;DHT22;21994;48.204;16.516;2023-02-12T07:59:07;7.20;99.90
35894;DHT22;21994;48.204;16.516;2023-02-12T08:01:42;7.20;99.90
35894;DHT22;21994;48.204;16.516;2023-02-12T08:04:11;7.30;99.90
35894;DHT22;21994;48.204;16.516;2023-02-12T08:06:39;7.30;99.90
35894;DHT22;21994;48.204;16.516;2023-02-12T08:09:08;7.40;99.90
35894;DHT22;21994;48.204;16.516;2023-02-12T08:11:35;7.40;99.90
35894;DHT22;21994;48.204;16.516;2023-02-12T08:14:02;7.40;99.90
35894;DHT22;21994;48.204;16.516;2023-02-12T08:16:28;7.50;99.90
35894;DHT22;21994;48.204;16.516;2023-02-12T08:18:56;7.70;99.90
35894;DHT22;21994;48.204;16.516;2023-02-12T08:21:23;7.60;99.90
35894;DHT22;21994;48.204;16.516;2023-02-12T08:23:50;7.70;99.90
35894;DHT22;21994;48.204;16.516;2023-02-12T08:26:22;7.80;99.90
35894;DHT22;21994;48.204;16.516;2023-02-12T08:29:06;7.80;99.90
35894;DHT22;21994;48.204;16.516;2023-02-12T08:31:34;7.80;99.90
35894;DHT22;21994;48.204;16.516;2023-02-12T08:34:04;8.00;99.90
35894;DHT22;21994;48.204;16.516;2023-02-12T08:36:37;8.20;99.90
35894;DHT22;21994;48.204;16.516;2023-02-12T08:39:04;8.30;99.90
35894;DHT22;21994;48.204;16.516;2023-02-12T08:41:31;8.50;99.90
35894;DHT22;21994;48.204;16.516;2023-02-12T08:43:58;8.80;99.90
35894;DHT22;21994;48.204;16.516;2023-02-12T08:46:26;9.00;99.90
35894;DHT22;21994;48.204;16.516;2023-02-12T08:48:59;8.90;99.90
35894;DHT22;21994;48.204;16.516;2023-02-12T08:51:28;8.90;99.90
35894;DHT22;21994;48.204;16.516;2023-02-12T08:53:57;8.80;99.90
35894;DHT22;21994;48.204;16.516;2023-02-12T08:56:34;8.80;99.90
35894;DHT22;21994;48.204;16.516;2023-02-12T08:59:00;9.00;99.90
35894;DHT22;21994;48.204;16.516;2023-02-12T09:01:29;9.00;99.90
35894;DHT22;21994;48.204;16.516;2023-02-12T09:03:55;9.00;99.90
35894;DHT22;21994;48.204;16.516;2023-02-12T09:06:22;9.30;99.90
35894;DHT22;21994;48.204;16.516;2023-02-12T09:08:49;10.00;99.90
35894;DHT22;21994;48.204;16.516;2023-02-12T09:11:16;10.40;99.90
35894;DHT22;21994;48.204;16.516;2023-02-12T09:13:44;10.40;99.90
35894;DHT22;21994;48.204;16.516;2023-02-12T09:16:11;9.80;99.90
35894;DHT22;21994;48.204;16.516;2023-02-12T09:18:40;9.50;99.90
35894;DHT22;21994;48.204;16.516;2023-02-12T09:21:15;9.20;99.90
35894;DHT22;21994;48.204;16.516;2023-02-12T09:23:41;9.50;99.90
35894;DHT22;21994;48.204;16.516;2023-02-12T09:26:09;9.90;99.90
35894;DHT22;21994;48.204;16.516;2023-02-12T09:28:36;10.90;99.90
35894;DHT22;21994;48.204;16.516;2023-02-12T09:31:06;12.30;99.90
35894;DHT22;21994;48.204;16.516;2023-02-12T09:33:39;12.50;99.20
35894;DHT22;21994;48.204;16.516;2023-02-12T09:36:10;12.40;98.90
35894;DHT22;21994;48.204;16.516;2023-02-12T09:38:38;12.40;99.20
35894;DHT22;21994;48.204;16.516;2023-02-12T09:47:02;12.10;99.30
35894;DHT22;21994;48.204;16.516;2023-02-12T09:51:58;13.50;97.60
35894;DHT22;21994;48.204;16.516;2023-02-12T09:54:28;13.50;96.80
35894;DHT22;21994;48.204;16.516;2023-02-12T09:57:00;13.40;97.10
35894;DHT22;21994;48.204;16.516;2023-02-12T09:59:34;13.80;97.40
35894;DHT22;21994;48.204;16.516;2023-02-12T10:02:05;14.70;96.20
35894;DHT22;21994;48.204;16.516;2023-02-12T10:04:37;15.40;94.70
35894;DHT22;21994;48.204;16.516;2023-02-12T10:12:46;15.30;94.10
35894;DHT22;21994;48.204;16.516;2023-02-12T10:15:19;15.20;94.60
35894;DHT22;21994;48.204;16.516;2023-02-12T10:18:04;14.90;94.10
35894;DHT22;21994;48.204;16.516;2023-02-12T10:28:38;14.10;94.80
35894;DHT22;21994;48.204;16.516;2023-02-12T10:36:14;14.00;94.80
35894;DHT22;21994;48.204;16.516;2023-02-12T10:38:48;14.30;94.90
35894;DHT22;21994;48.204;16.516;2023-02-12T10:41:16;14.60;94.40
35894;DHT22;21994;48.204;16.516;2023-02-12T10:43:42;15.30;94.50
35894;DHT22;21994;48.204;16.516;2023-02-12T10:46:14;15.80;93.20
35894;DHT22;21994;48.204;16.516;2023-02-12T10:48:42;15.90;92.70
35894;DHT22;21994;48.204;16.516;2023-02-12T10:53:45;15.40;93.70
35894;DHT22;21994;48.204;16.516;2023-02-12T10:58:39;15.40;93.70
35894;DHT22;21994;48.204;16.516;2023-02-12T11:01:13;15.70;93.40
35894;DHT22;21994;48.204;16.516;2023-02-12T11:04:06;16.00;92.90
35894;DHT22;21994;48.204;16.516;2023-02-12T11:06:57;16.40;91.90
35894;DHT22;21994;48.204;16.516;2023-02-12T11:09:32;16.00;91.90
35894;DHT22;21994;48.204;16.516;2023-02-12T11:12:00;15.50;92.90
35894;DHT22;21994;48.204;16.516;2023-02-12T11:14:27;15.10;93.20
35894;DHT22;21994;48.204;16.516;2023-02-12T11:16:59;14.50;93.40
35894;DHT22;21994;48.204;16.516;2023-02-12T11:19:30;13.90;94.20
35894;DHT22;21994;48.204;16.516;2023-02-12T11:22:09;13.20;95.40
35894;DHT22;21994;48.204;16.516;2023-02-12T11:24:35;13.30;95.50
35894;DHT22;21994;48.204;16.516;2023-02-12T11:29:41;13.60;95.30
35894;DHT22;21994;48.204;16.516;2023-02-12T11:32:08;13.40;95.30
35894;DHT22;21994;48.204;16.516;2023-02-12T11:34:40;13.00;95.80
35894;DHT22;21994;48.204;16.516;2023-02-12T11:37:11;12.50;96.50
35894;DHT22;21994;48.204;16.516;2023-02-12T11:39:40;12.20;97.20
35894;DHT22;21994;48.204;16.516;2023-02-12T11:42:15;11.70;97.50
35894;DHT22;21994;48.204;16.516;2023-02-12T11:44:46;11.50;98.70
35894;DHT22;21994;48.204;16.516;2023-02-12T11:47:23;11.50;98.90
35894;DHT22;21994;48.204;16.516;2023-02-12T11:52:53;12.10;98.50
35894;DHT22;21994;48.204;16.516;2023-02-12T11:55:31;12.30;97.50
35894;DHT22;21994;48.204;16.516;2023-02-12T11:58:02;12.30;97.60
35894;DHT22;21994;48.204;16.516;2023-02-12T12:00:35;12.30;97.00
35894;DHT22;21994;48.204;16.516;2023-02-12T12:05:35;11.40;97.10
35894;DHT22;21994;48.204;16.516;2023-02-12T12:08:05;11.20;98.80
35894;DHT22;21994;48.204;16.516;2023-02-12T12:10:40;11.50;98.80
35894;DHT22;21994;48.204;16.516;2023-02-12T12:13:20;11.90;98.70
35894;DHT22;21994;48.204;16.516;2023-02-12T12:16:07;12.20;97.50
35894;DHT22;21994;48.204;16.516;2023-02-12T12:18:58;12.10;97.40
35894;DHT22;21994;48.204;16.516;2023-02-12T12:24:24;11.50;98.50
35894;DHT22;21994;48.204;16.516;2023-02-12T12:27:05;11.30;98.40
35894;DHT22;21994;48.204;16.516;2023-02-12T12:29:54;11.30;99.00
35894;DHT22;21994;48.204;16.516;2023-02-12T12:32:23;11.40;99.00
35894;DHT22;21994;48.204;16.516;2023-02-12T12:34:50;11.30;98.50
35894;DHT22;21994;48.204;16.516;2023-02-12T12:37:22;11.10;99.50
35894;DHT22;21994;48.204;16.516;2023-02-12T12:53:41;11.40;98.80
35894;DHT22;21994;48.204;16.516;2023-02-12T13:04:31;10.90;99.80
35894;DHT22;21994;48.204;16.516;2023-02-12T13:07:24;10.70;99.90
35894;DHT22;21994;48.204;16.516;2023-02-12T13:20:48;10.50;99.90
35894;DHT22;21994;48.204;16.516;2023-02-12T13:23:40;10.60;99.90
35894;DHT22;21994;48.204;16.516;2023-02-12T13:26:15;10.60;99.90
35894;DHT22;21994;48.204;16.516;2023-02-12T13:28:53;10.50;99.90
35894;DHT22;21994;48.204;16.516;2023-02-12T13:31:25;10.60;99.90
35894;DHT22;21994;48.204;16.516;2023-02-12T13:33:54;10.60;99.80
35894;DHT22;21994;48.204;16.516;2023-02-12T13:36:21;10.40;99.90
35894;DHT22;21994;48.204;16.516;2023-02-12T13:38:55;10.50;99.90
35894;DHT22;21994;48.204;16.516;2023-02-12T13:41:21;10.50;99.70
35894;DHT22;21994;48.204;16.516;2023-02-12T13:43:52;10.60;99.50
35894;DHT22;21994;48.204;16.516;2023-02-12T13:46:49;10.70;99.30
35894;DHT22;21994;48.204;16.516;2023-02-12T13:51:52;11.10;99.30
35894;DHT22;21994;48.204;16.516;2023-02-12T13:54:48;11.00;99.40
35894;DHT22;21994;48.204;16.516;2023-02-12T13:57:16;11.10;99.70
35894;DHT22;21994;48.204;16.516;2023-02-12T13:59:46;11.00;99.40
35894;DHT22;21994;48.204;16.516;2023-02-12T14:10:22;10.20;99.90
35894;DHT22;21994;48.204;16.516;2023-02-12T14:12:52;10.10;99.90
35894;DHT22;21994;48.204;16.516;2023-02-12T14:15:27;9.90;99.90
35894;DHT22;21994;48.204;16.516;2023-02-12T14:18:02;9.80;99.90
35894;DHT22;21994;48.204;16.516;2023-02-12T14:20:32;10.00;99.90
35894;DHT22;21994;48.204;16.516;2023-02-12T14:23:00;10.00;99.90
35894;DHT22;21994;48.204;16.516;2023-02-12T14:25:31;9.90;99.90
35894;DHT22;21994;48.204;16.516;2023-02-12T14:31:17;9.90;99.90
35894;DHT22;21994;48.204;16.516;2023-02-12T14:33:43;9.90;99.90
35894;DHT22;21994;48.204;16.516;2023-02-12T14:36:34;9.90;99.90
35894;DHT22;21994;48.204;16.516;2023-02-12T14:41:45;9.90;99.90
35894;DHT22;21994;48.204;16.516;2023-02-12T14:46:42;9.80;99.90
35894;DHT22;21994;48.204;16.516;2023-02-12T14:49:23;9.80;99.90
35894;DHT22;21994;48.204;16.516;2023-02-12T14:51:56;9.70;99.90
35894;DHT22;21994;48.204;16.516;2023-02-12T14:54:56;9.60;99.90
35894;DHT22;21994;48.204;16.516;2023-02-12T14:57:31;9.50;99.90
35894;DHT22;21994;48.204;16.516;2023-02-12T15:02:50;9.50;99.90
35894;DHT22;21994;48.204;16.516;2023-02-12T15:08:03;9.60;99.90
35894;DHT22;21994;48.204;16.516;2023-02-12T15:10:33;9.60;99.90
35894;DHT22;21994;48.204;16.516;2023-02-12T15:13:17;9.60;99.90
35894;DHT22;21994;48.204;16.516;2023-02-12T15:15:51;9.40;99.90
35894;DHT22;21994;48.204;16.516;2023-02-12T15:23:56;9.20;99.90
35894;DHT22;21994;48.204;16.516;2023-02-12T15:26:27;9.20;99.90
35894;DHT22;21994;48.204;16.516;2023-02-12T15:28:54;9.20;99.90
35894;DHT22;21994;48.204;16.516;2023-02-12T15:31:21;9.20;99.90
35894;DHT22;21994;48.204;16.516;2023-02-12T15:33:51;9.20;99.90
35894;DHT22;21994;48.204;16.516;2023-02-12T15:36:20;9.10;99.90
35894;DHT22;21994;48.204;16.516;2023-02-12T15:39:13;9.00;99.90
35894;DHT22;21994;48.204;16.516;2023-02-12T15:41:39;9.10;99.90
35894;DHT22;21994;48.204;16.516;2023-02-12T15:44:20;9.10;99.90
35894;DHT22;21994;48.204;16.516;2023-02-12T15:49:35;9.00;99.90
35894;DHT22;21994;48.204;16.516;2023-02-12T15:52:03;8.90;99.90
35894;DHT22;21994;48.204;16.516;2023-02-12T15:54:32;8.90;99.90
35894;DHT22;21994;48.204;16.516;2023-02-12T15:56:58;8.80;99.90
35894;DHT22;21994;48.204;16.516;2023-02-12T15:59:25;8.70;99.90
35894;DHT22;21994;48.204;16.516;2023-02-12T16:01:59;8.60;99.90
35894;DHT22;21994;48.204;16.516;2023-02-12T16:04:28;8.60;99.90
35894;DHT22;21994;48.204;16.516;2023-02-12T16:06:55;8.60;99.90
35894;DHT22;21994;48.204;16.516;2023-02-12T16:09:26;8.40;99.90
35894;DHT22;21994;48.204;16.516;2023-02-12T16:11:58;8.40;99.90
35894;DHT22;21994;48.204;16.516;2023-02-12T16:14:26;8.40;99.90
35894;DHT22;21994;48.204;16.516;2023-02-12T16:16:57;8.30;99.90
35894;DHT22;21994;48.204;16.516;2023-02-12T16:19:30;8.20;99.90
35894;DHT22;21994;48.204;16.516;2023-02-12T16:24:31;8.20;99.90
35894;DHT22;21994;48.204;16.516;2023-02-12T16:27:14;8.10;99.90
35894;DHT22;21994;48.204;16.516;2023-02-12T16:29:44;8.10;99.90
35894;DHT22;21994;48.204;16.516;2023-02-12T16:32:41;8.10;99.90
35894;DHT22;21994;48.204;16.516;2023-02-12T16:42:35;8.00;99.90
35894;DHT22;21994;48.204;16.516;2023-02-12T16:45:18;8.00;99.90
35894;DHT22;21994;48.204;16.516;2023-02-12T16:47:53;8.00;99.90
35894;DHT22;21994;48.204;16.516;2023-02-12T16:50:21;7.90;99.90
35894;DHT22;21994;48.204;16.516;2023-02-12T16:52:48;7.90;99.90
35894;DHT22;21994;48.204;16.516;2023-02-12T16:55:15;8.00;99.90
35894;DHT22;21994;48.204;16.516;2023-02-12T16:57:42;7.90;99.90
35894;DHT22;21994;48.204;16.516;2023-02-12T17:00:11;7.80;99.90
35894;DHT22;21994;48.204;16.516;2023-02-12T17:02:40;7.80;99.90
35894;DHT22;21994;48.204;16.516;2023-02-12T17:05:06;7.80;99.90
35894;DHT22;21994;48.204;16.516;2023-02-12T17:07:32;7.80;99.90
35894;DHT22;21994;48.204;16.516;2023-02-12T17:09:58;7.80;99.90
35894;DHT22;21994;48.204;16.516;2023-02-12T17:12:24;7.80;99.90
35894;DHT22;21994;48.204;16.516;2023-02-12T17:14:50;7.80;99.90
35894;DHT22;21994;48.204;16.516;2023-02-12T17:17:16;7.80;99.90
35894;DHT22;21994;48.204;16.516;2023-02-12T17:19:41;7.90;99.90
35894;DHT22;21994;48.204;16.516;2023-02-12T17:22:13;7.80;99.90
35894;DHT22;21994;48.204;16.516;2023-02-12T17:24:47;7.80;99.90
35894;DHT22;21994;48.204;16.516;2023-02-12T17:27:17;7.70;99.90
35894;DHT22;21994;48.204;16.516;2023-02-12T17:29:44;7.70;99.90
35894;DHT22;21994;48.204;16.516;2023-02-12T17:32:10;7.60;99.90
35894;DHT22;21994;48.204;16.516;2023-02-12T17:34:36;7.70;99.90
35894;DHT22;21994;48.204;16.516;2023-02-12T17:37:03;7.70;99.90
35894;DHT22;21994;48.204;16.516;2023-02-12T17:39:29;7.80;99.90
35894;DHT22;21994;48.204;16.516;2023-02-12T17:41:54;7.70;99.90
35894;DHT22;21994;48.204;16.516;2023-02-12T17:44:20;7.80;99.90
35894;DHT22;21994;48.204;16.516;2023-02-12T17:46:46;7.80;99.90
35894;DHT22;21994;48.204;16.516;2023-02-12T17:49:11;7.80;99.90
35894;DHT22;21994;48.204;16.516;2023-02-12T17:51:38;7.70;99.90
35894;DHT22;21994;48.204;16.516;2023-02-12T17:54:03;7.80;99.90
35894;DHT22;21994;48.204;16.516;2023-02-12T17:56:29;7.80;99.90
35894;DHT22;21994;48.204;16.516;2023-02-12T17:58:55;7.80;99.90
35894;DHT22;21994;48.204;16.516;2023-02-12T18:01:21;7.80;99.90
35894;DHT22;21994;48.204;16.516;2023-02-12T18:03:47;7.70;99.90
35894;DHT22;21994;48.204;16.516;2023-02-12T18:06:20;7.70;99.90
35894;DHT22;21994;48.204;16.516;2023-02-12T18:08:46;7.80;99.90
35894;DHT22;21994;48.204;16.516;2023-02-12T18:11:12;7.70;99.90